Time;durP1;ratioP1;P1;durP2;ratioP2;P2;SDS_P1;SDS_P2;PMS_P1;PMS_P2;Temp;Humidity;BMP_temperature;BMP_pressure;BME280_temperature;BME280_humidity;BME280_pressure;Samples;Min_cycle;Max_cycle;Signal;HPM_P1;HPM_P2
2022/02/20 00:02:16;;;;;;;15.02;3.20;;;7.80;78.60;;;;;;4971568;28;20108;-76
2022/02/20 00:04:42;;;;;;;9.77;2.67;;;7.80;79.00;;;;;;4948133;28;20046;-77
2022/02/20 00:07:09;;;;;;;13.07;2.72;;;7.70;79.30;;;;;;4964495;28;20030;-76
2022/02/20 00:09:36;;;;;;;17.13;3.50;;;7.60;79.70;;;;;;4961465;28;20054;-75
2022/02/20 00:12:01;;;;;;;13.05;3.10;;;7.60;79.80;;;;;;4965129;28;20239;-77
2022/02/20 00:14:27;;;;;;;16.83;3.75;;;7.50;80.00;;;;;;4968916;28;20109;-76
2022/02/20 00:16:53;;;;;;;16.95;3.28;;;7.50;80.30;;;;;;4966965;28;20049;-76
2022/02/20 00:19:20;;;;;;;15.90;3.50;;;7.40;80.50;;;;;;4965180;28;20019;-76
2022/02/20 00:21:45;;;;;;;16.80;3.78;;;7.40;80.90;;;;;;4971725;28;20038;-76
2022/02/20 00:24:11;;;;;;;13.88;3.42;;;7.40;81.10;;;;;;4966907;28;20089;-76
2022/02/20 00:26:37;;;;;;;18.48;4.10;;;7.40;81.30;;;;;;4974783;28;20039;-76
2022/02/20 00:29:03;;;;;;;15.57;3.70;;;7.30;81.60;;;;;;4966842;28;20030;-76
2022/02/20 00:31:28;;;;;;;18.42;4.22;;;7.30;81.80;;;;;;4980323;28;20557;-76
2022/02/20 00:33:54;;;;;;;14.00;3.63;;;7.20;82.10;;;;;;4968124;28;20386;-76
2022/02/20 00:36:20;;;;;;;20.75;5.43;;;7.20;82.20;;;;;;4981715;28;20062;-75
2022/02/20 00:38:46;;;;;;;16.80;4.03;;;7.20;82.20;;;;;;4967943;28;20027;-76
2022/02/20 00:41:11;;;;;;;17.98;3.83;;;7.20;82.50;;;;;;4974388;28;20442;-75
2022/02/20 00:43:37;;;;;;;15.73;3.72;;;7.20;82.60;;;;;;4962704;28;20030;-76
2022/02/20 00:46:03;;;;;;;20.20;4.35;;;7.10;82.70;;;;;;4967420;28;20042;-76
2022/02/20 00:48:28;;;;;;;14.32;4.85;;;7.10;82.90;;;;;;4963985;28;20034;-76
2022/02/20 00:50:54;;;;;;;20.23;5.82;;;7.10;83.40;;;;;;4971100;28;20425;-76
2022/02/20 00:53:20;;;;;;;19.10;6.20;;;7.00;83.70;;;;;;4954207;28;20607;-77
2022/02/20 00:55:46;;;;;;;18.65;5.95;;;7.00;83.90;;;;;;4971315;28;21053;-74
2022/02/20 00:58:11;;;;;;;24.88;6.50;;;7.00;84.30;;;;;;4963087;28;20074;-77
2022/02/20 01:00:37;;;;;;;24.83;6.60;;;7.00;84.40;;;;;;4963335;28;20315;-76
2022/02/20 01:03:06;;;;;;;24.17;7.03;;;7.00;84.40;;;;;;4966020;28;20038;-76
2022/02/20 01:05:32;;;;;;;24.42;8.60;;;7.00;84.50;;;;;;4964863;28;20029;-76
2022/02/20 01:07:57;;;;;;;23.90;8.40;;;7.00;84.80;;;;;;4972789;28;20043;-76
2022/02/20 01:10:23;;;;;;;21.27;8.68;;;7.00;84.90;;;;;;4946307;28;20043;-76
2022/02/20 01:12:49;;;;;;;28.00;10.23;;;7.10;85.00;;;;;;4961183;28;20043;-76
2022/02/20 01:15:15;;;;;;;24.50;10.63;;;7.10;85.10;;;;;;4960092;28;20595;-76
2022/02/20 01:17:41;;;;;;;28.08;10.27;;;7.10;85.30;;;;;;4967754;28;20360;-76
2022/02/20 01:20:08;;;;;;;33.95;11.50;;;7.10;85.40;;;;;;4976073;28;20050;-77
2022/02/20 01:22:34;;;;;;;25.63;10.50;;;7.00;85.30;;;;;;4984196;28;20031;-77
2022/02/20 01:24:59;;;;;;;22.90;8.85;;;7.00;85.40;;;;;;4965242;28;20050;-76
2022/02/20 01:27:25;;;;;;;23.85;9.25;;;6.90;85.50;;;;;;4962611;28;20031;-77
2022/02/20 01:29:51;;;;;;;23.17;8.30;;;6.80;85.60;;;;;;4963920;28;20043;-76
2022/02/20 01:32:17;;;;;;;22.67;7.68;;;6.80;85.70;;;;;;4962587;28;20121;-78
2022/02/20 01:34:42;;;;;;;21.80;6.60;;;6.70;85.80;;;;;;4956998;28;20209;-77
2022/02/20 01:37:08;;;;;;;18.05;6.65;;;6.60;86.00;;;;;;4958302;28;20447;-76
2022/02/20 01:39:34;;;;;;;19.00;5.35;;;6.60;86.10;;;;;;4966984;28;20035;-76
2022/02/20 01:42:00;;;;;;;18.95;5.63;;;6.70;86.30;;;;;;4963220;28;20513;-77
2022/02/20 01:44:26;;;;;;;23.60;5.85;;;6.60;86.30;;;;;;4977747;28;20058;-77
2022/02/20 01:47:01;;;;;;;23.20;5.30;;;6.70;86.50;;;;;;4963758;28;20554;-76
2022/02/20 01:49:27;;;;;;;21.52;5.32;;;6.70;86.60;;;;;;4970631;28;20061;-77
2022/02/20 01:51:52;;;;;;;19.95;5.95;;;6.70;86.70;;;;;;4965497;28;20443;-75
2022/02/20 01:54:18;;;;;;;29.67;5.82;;;6.80;86.70;;;;;;4965420;28;20039;-76
2022/02/20 01:56:43;;;;;;;25.30;4.25;;;6.80;86.80;;;;;;4966389;28;20085;-76
2022/02/20 01:59:09;;;;;;;21.02;4.95;;;6.90;86.60;;;;;;4964727;28;20654;-77
2022/02/20 02:01:36;;;;;;;22.17;5.35;;;7.00;86.40;;;;;;4950374;28;20507;-76
2022/02/20 02:04:02;;;;;;;22.77;4.57;;;7.00;86.40;;;;;;4967252;28;20081;-76
2022/02/20 02:06:31;;;;;;;22.85;5.47;;;7.00;86.30;;;;;;4965016;28;20538;-76
2022/02/20 02:08:58;;;;;;;21.33;5.00;;;7.10;86.20;;;;;;4950436;28;20034;-75
2022/02/20 02:11:24;;;;;;;24.95;5.78;;;7.10;86.30;;;;;;4964657;28;20035;-76
2022/02/20 02:13:50;;;;;;;23.38;5.60;;;7.30;86.20;;;;;;4969078;28;20031;-75
2022/02/20 02:16:16;;;;;;;20.30;5.72;;;7.30;86.20;;;;;;4966610;28;20046;-77
2022/02/20 02:18:42;;;;;;;30.85;6.75;;;7.40;86.50;;;;;;4974717;28;20038;-76
2022/02/20 02:21:08;;;;;;;26.65;5.75;;;7.40;86.50;;;;;;4963270;28;20077;-75
2022/02/20 02:23:34;;;;;;;30.63;6.20;;;7.50;86.70;;;;;;4965914;28;20118;-75
2022/02/20 02:25:59;;;;;;;30.33;7.03;;;7.50;86.70;;;;;;4966210;28;20061;-76
2022/02/20 02:28:26;;;;;;;28.10;7.30;;;7.60;87.00;;;;;;4966067;28;20402;-77
2022/02/20 02:30:52;;;;;;;32.30;6.38;;;7.60;87.10;;;;;;4954544;28;20035;-76
2022/02/20 02:33:32;;;;;;;38.78;6.85;;;7.70;87.10;;;;;;4956682;28;20513;-75
2022/02/20 02:35:59;;;;;;;32.15;6.85;;;7.70;87.30;;;;;;4969822;28;20509;-76
2022/02/20 02:38:26;;;;;;;40.47;8.10;;;7.70;87.30;;;;;;4964544;28;20045;-76
2022/02/20 02:41:10;;;;;;;34.45;5.97;;;7.70;87.60;;;;;;4968501;28;20097;-75
2022/02/20 02:43:38;;;;;;;38.20;6.88;;;7.80;87.70;;;;;;4973106;28;20038;-76
2022/02/20 02:46:04;;;;;;;38.40;7.53;;;7.70;87.70;;;;;;4977433;28;20096;-76
2022/02/20 02:48:30;;;;;;;30.85;6.63;;;7.70;87.80;;;;;;4980540;28;20332;-76
2022/02/20 02:50:56;;;;;;;35.35;7.50;;;7.70;87.90;;;;;;4966101;28;20301;-77
2022/02/20 02:53:22;;;;;;;34.00;7.03;;;7.70;88.00;;;;;;4949306;28;20086;-76
2022/02/20 02:55:50;;;;;;;28.48;6.68;;;7.70;88.10;;;;;;4969996;28;20049;-75
2022/02/20 02:58:26;;;;;;;42.78;7.55;;;7.70;88.30;;;;;;4974050;28;20035;-76
2022/02/20 03:00:53;;;;;;;35.95;6.68;;;7.80;88.30;;;;;;4968691;28;20165;-76
2022/02/20 03:03:19;;;;;;;40.47;7.70;;;7.80;88.50;;;;;;4971578;28;20026;-77
2022/02/20 03:05:45;;;;;;;42.47;6.38;;;7.90;88.40;;;;;;4964348;28;20030;-76
2022/02/20 03:08:11;;;;;;;40.72;7.55;;;7.90;88.40;;;;;;4962045;28;20061;-76
2022/02/20 03:10:36;;;;;;;40.15;6.97;;;7.80;88.40;;;;;;4963951;28;20121;-76
2022/02/20 03:13:03;;;;;;;41.40;7.53;;;7.90;88.70;;;;;;4968511;28;20030;-76
2022/02/20 03:15:29;;;;;;;42.00;8.10;;;7.80;88.70;;;;;;4955907;28;20066;-76
2022/02/20 03:17:55;;;;;;;35.42;6.65;;;7.90;88.80;;;;;;4977456;28;20034;-76
2022/02/20 03:20:20;;;;;;;35.53;7.43;;;7.90;88.90;;;;;;4963088;28;20546;-76
2022/02/20 03:22:46;;;;;;;40.38;7.22;;;7.80;89.00;;;;;;4967272;28;20157;-76
2022/02/20 03:25:12;;;;;;;44.17;8.18;;;7.90;89.20;;;;;;4982557;28;20042;-77
2022/02/20 03:27:38;;;;;;;39.70;7.05;;;7.90;89.20;;;;;;4966421;28;20038;-76
2022/02/20 03:30:05;;;;;;;37.95;7.63;;;8.00;89.20;;;;;;4970464;28;20045;-76
2022/02/20 03:32:30;;;;;;;42.38;8.38;;;8.10;89.20;;;;;;4968209;28;20034;-76
2022/02/20 03:34:56;;;;;;;40.65;6.70;;;8.10;89.20;;;;;;4962349;28;20046;-76
2022/02/20 03:37:22;;;;;;;33.67;6.75;;;8.10;89.00;;;;;;4983307;28;20081;-76
2022/02/20 03:39:47;;;;;;;33.03;6.60;;;8.10;88.90;;;;;;4938815;28;20478;-76
2022/02/20 03:42:13;;;;;;;38.17;6.38;;;8.20;89.00;;;;;;4963348;28;20534;-75
2022/02/20 03:44:38;;;;;;;40.58;8.70;;;8.20;88.90;;;;;;4954668;28;20483;-74
2022/02/20 03:47:04;;;;;;;43.67;8.23;;;8.30;88.60;;;;;;4975310;28;20039;-76
2022/02/20 03:49:30;;;;;;;38.92;7.22;;;8.40;88.70;;;;;;4971323;28;20034;-76
2022/02/20 03:51:55;;;;;;;37.92;8.00;;;8.40;88.70;;;;;;4964755;28;20489;-77
2022/02/20 03:54:21;;;;;;;32.20;6.70;;;8.40;88.60;;;;;;4944925;28;20557;-76
2022/02/20 03:56:47;;;;;;;41.58;7.78;;;8.40;88.70;;;;;;4962875;28;20483;-75
2022/02/20 03:59:12;;;;;;;33.90;6.32;;;8.40;88.50;;;;;;4961120;28;20472;-77
2022/02/20 04:01:38;;;;;;;40.17;7.20;;;8.40;88.60;;;;;;4964153;28;20042;-75
2022/02/20 04:04:04;;;;;;;42.15;7.45;;;8.50;88.60;;;;;;4966436;28;20113;-76
2022/02/20 04:06:29;;;;;;;36.28;7.65;;;8.50;88.60;;;;;;4969532;28;20106;-76
2022/02/20 04:08:55;;;;;;;39.92;7.22;;;8.50;88.50;;;;;;4947350;28;20026;-76
2022/02/20 04:11:21;;;;;;;43.78;7.93;;;8.50;88.50;;;;;;4962887;28;20034;-76
2022/02/20 04:13:46;;;;;;;41.55;8.85;;;8.60;88.50;;;;;;4985334;28;20049;-76
2022/02/20 04:16:12;;;;;;;38.63;6.80;;;8.60;88.50;;;;;;4970150;28;20094;-77
2022/02/20 04:18:38;;;;;;;42.88;8.30;;;8.60;88.50;;;;;;4973755;28;20642;-76
2022/02/20 04:21:04;;;;;;;37.15;7.75;;;8.60;88.40;;;;;;4961613;28;20039;-76
2022/02/20 04:23:30;;;;;;;36.72;7.68;;;8.60;88.40;;;;;;4962665;28;20501;-75
2022/02/20 04:26:01;;;;;;;41.45;7.55;;;8.70;88.40;;;;;;4949027;28;20060;-76
2022/02/20 04:28:28;;;;;;;36.90;7.22;;;8.70;88.40;;;;;;4948147;28;20030;-76
2022/02/20 04:30:54;;;;;;;41.38;7.30;;;8.70;88.40;;;;;;4971722;28;20034;-75
2022/02/20 04:33:19;;;;;;;40.28;8.25;;;8.80;88.40;;;;;;4964516;28;20038;-75
2022/02/20 04:35:45;;;;;;;35.20;7.47;;;8.90;88.40;;;;;;4971736;28;20418;-76
2022/02/20 04:38:11;;;;;;;38.35;6.68;;;8.90;88.50;;;;;;4945681;28;20403;-76
2022/02/20 04:40:36;;;;;;;42.00;7.57;;;9.00;88.50;;;;;;4967252;28;20038;-76
2022/02/20 04:43:02;;;;;;;34.83;6.45;;;9.00;88.80;;;;;;4966056;28;20117;-75
2022/02/20 04:45:27;;;;;;;35.47;6.15;;;9.10;88.90;;;;;;4967831;28;20538;-76
2022/02/20 04:47:53;;;;;;;40.72;7.80;;;9.10;89.30;;;;;;4973391;28;20113;-75
2022/02/20 04:50:19;;;;;;;40.08;7.47;;;9.10;89.80;;;;;;4963549;28;20045;-75
2022/02/20 04:52:45;;;;;;;36.47;6.68;;;9.10;90.00;;;;;;4961255;28;20038;-76
2022/02/20 04:55:11;;;;;;;44.50;7.47;;;9.10;90.50;;;;;;4975437;28;20031;-77
2022/02/20 04:57:38;;;;;;;34.25;6.97;;;9.00;90.70;;;;;;4985035;28;20090;-75
2022/02/20 05:00:09;;;;;;;32.65;6.60;;;9.00;91.00;;;;;;4970168;28;20095;-77
2022/02/20 05:02:34;;;;;;;30.15;5.78;;;9.00;91.30;;;;;;4947653;28;20042;-78
2022/02/20 05:05:00;;;;;;;35.53;6.93;;;9.00;91.50;;;;;;4961218;28;20090;-77
2022/02/20 05:07:26;;;;;;;34.95;6.35;;;9.00;91.70;;;;;;4960405;28;20035;-77
2022/02/20 05:09:52;;;;;;;31.70;6.57;;;9.00;91.90;;;;;;4960773;28;20484;-77
2022/02/20 05:12:17;;;;;;;26.08;6.10;;;9.00;92.10;;;;;;4963130;28;20482;-77
2022/02/20 05:14:43;;;;;;;31.55;6.50;;;9.00;92.30;;;;;;4970128;28;20049;-77
2022/02/20 05:17:11;;;;;;;32.35;6.57;;;8.90;92.40;;;;;;4962465;28;20141;-76
2022/02/20 05:19:37;;;;;;;27.15;5.32;;;9.00;92.50;;;;;;4946131;28;20505;-77
2022/02/20 05:22:03;;;;;;;29.73;6.32;;;9.00;92.60;;;;;;4963694;28;20069;-76
2022/02/20 05:24:29;;;;;;;32.08;5.05;;;9.00;92.60;;;;;;4967467;28;20035;-76
2022/02/20 05:26:54;;;;;;;32.58;5.50;;;9.00;92.70;;;;;;4966354;28;20376;-77
2022/02/20 05:29:20;;;;;;;33.60;6.13;;;9.00;92.70;;;;;;4968951;28;20096;-76
2022/02/20 05:31:45;;;;;;;28.40;6.35;;;9.00;92.80;;;;;;4973006;28;20042;-77
2022/02/20 05:34:11;;;;;;;33.60;7.32;;;8.90;92.60;;;;;;4978557;28;20491;-76
2022/02/20 05:36:37;;;;;;;32.72;6.75;;;8.90;92.70;;;;;;4961608;28;20041;-76
2022/02/20 05:39:03;;;;;;;28.83;5.97;;;8.90;92.80;;;;;;4969924;28;20105;-76
2022/02/20 05:41:29;;;;;;;23.38;7.22;;;8.90;92.80;;;;;;4972958;28;20431;-76
2022/02/20 05:43:54;;;;;;;30.67;6.70;;;8.80;92.80;;;;;;4976130;28;20041;-77
2022/02/20 05:46:20;;;;;;;26.27;5.35;;;8.90;92.90;;;;;;4967965;28;20035;-77
2022/02/20 05:48:46;;;;;;;28.00;5.70;;;8.90;93.00;;;;;;4964434;28;20097;-77
2022/02/20 05:51:12;;;;;;;27.30;6.35;;;8.90;93.00;;;;;;4965093;28;20633;-77
2022/02/20 05:53:37;;;;;;;22.67;6.22;;;8.90;93.00;;;;;;4978188;28;20039;-76
2022/02/20 05:56:03;;;;;;;28.23;5.45;;;8.90;93.00;;;;;;4964997;28;20413;-78
2022/02/20 05:58:29;;;;;;;23.48;5.32;;;8.90;93.10;;;;;;4963886;28;20169;-77
2022/02/20 06:00:55;;;;;;;20.08;4.78;;;9.00;93.10;;;;;;4971313;28;20117;-77
2022/02/20 06:03:20;;;;;;;22.65;4.72;;;9.00;93.10;;;;;;4950157;28;21974;-77
2022/02/20 06:05:46;;;;;;;22.10;4.22;;;9.00;93.10;;;;;;4964848;28;20397;-76
2022/02/20 06:08:12;;;;;;;19.67;4.65;;;9.00;93.10;;;;;;4968033;28;20292;-77
2022/02/20 06:10:37;;;;;;;20.50;4.07;;;9.00;93.20;;;;;;4966953;28;20055;-76
2022/02/20 06:13:04;;;;;;;21.30;4.45;;;9.10;93.20;;;;;;4965041;28;20035;-77
2022/02/20 06:15:30;;;;;;;21.80;4.07;;;9.10;93.20;;;;;;4974672;28;20057;-77
2022/02/20 06:17:56;;;;;;;17.63;4.40;;;9.10;93.10;;;;;;4975903;28;20039;-77
2022/02/20 06:20:22;;;;;;;24.95;5.25;;;9.10;93.10;;;;;;4964579;28;20121;-77
2022/02/20 06:22:47;;;;;;;25.73;5.22;;;9.10;93.10;;;;;;4969610;28;20467;-77
2022/02/20 06:25:13;;;;;;;25.58;5.40;;;9.20;93.10;;;;;;4975212;28;20477;-77
2022/02/20 06:27:39;;;;;;;25.25;4.95;;;9.20;93.10;;;;;;4977097;28;20026;-77
2022/02/20 06:30:05;;;;;;;20.60;4.40;;;9.20;93.10;;;;;;4951259;28;20031;-77
2022/02/20 06:32:31;;;;;;;20.13;5.00;;;9.20;93.10;;;;;;4967850;28;20038;-77
2022/02/20 06:34:56;;;;;;;23.08;4.95;;;9.20;93.10;;;;;;4965400;28;20043;-77
2022/02/20 06:37:22;;;;;;;20.67;4.63;;;9.30;93.10;;;;;;4968563;28;20041;-76
2022/02/20 06:39:48;;;;;;;25.70;5.47;;;9.30;93.10;;;;;;4965757;28;20055;-76
2022/02/20 06:42:15;;;;;;;24.75;4.18;;;9.30;93.10;;;;;;4964752;28;20149;-77
2022/02/20 06:44:41;;;;;;;20.88;5.72;;;9.40;93.10;;;;;;4980173;28;20026;-77
2022/02/20 06:47:07;;;;;;;21.58;4.72;;;9.40;93.00;;;;;;4976504;28;20054;-77
2022/02/20 06:49:33;;;;;;;26.92;6.50;;;9.40;93.10;;;;;;4981803;28;20041;-77
2022/02/20 06:51:58;;;;;;;23.25;5.05;;;9.50;93.10;;;;;;4979746;28;20058;-77
2022/02/20 06:54:27;;;;;;;25.73;6.63;;;9.50;93.00;;;;;;4946300;28;20042;-77
2022/02/20 06:56:55;;;;;;;23.98;5.30;;;9.50;93.00;;;;;;4968193;28;20039;-77
2022/02/20 06:59:21;;;;;;;23.00;5.40;;;9.50;93.10;;;;;;4972609;28;20042;-77
2022/02/20 07:01:47;;;;;;;27.15;5.93;;;9.50;93.00;;;;;;4953988;28;20054;-77
2022/02/20 07:04:15;;;;;;;31.17;7.35;;;9.60;93.10;;;;;;4966570;28;20121;-77
2022/02/20 07:06:42;;;;;;;26.25;6.15;;;9.60;93.10;;;;;;4965557;28;20399;-76
2022/02/20 07:09:11;;;;;;;31.27;6.50;;;9.60;93.10;;;;;;4964107;28;20031;-77
2022/02/20 07:11:38;;;;;;;34.50;6.75;;;9.60;93.10;;;;;;4966673;28;20041;-76
2022/02/20 07:14:04;;;;;;;30.10;7.32;;;9.70;93.10;;;;;;4969007;28;20046;-77
2022/02/20 07:16:30;;;;;;;27.83;6.78;;;9.70;93.10;;;;;;4950549;28;20545;-77
2022/02/20 07:18:56;;;;;;;30.92;6.75;;;9.70;93.20;;;;;;4986590;28;20842;-76
2022/02/20 07:21:24;;;;;;;26.10;5.78;;;9.70;93.20;;;;;;4960328;28;20486;-77
2022/02/20 07:23:51;;;;;;;28.17;7.03;;;9.80;93.10;;;;;;4971522;28;20045;-77
2022/02/20 07:26:17;;;;;;;34.95;7.75;;;9.90;93.10;;;;;;4960575;28;20753;-76
2022/02/20 07:28:42;;;;;;;35.65;6.93;;;9.90;92.90;;;;;;4957751;28;20126;-76
2022/02/20 07:31:08;;;;;;;31.27;7.15;;;9.90;92.80;;;;;;4954776;28;20402;-77
2022/02/20 07:33:34;;;;;;;35.75;7.35;;;9.90;92.80;;;;;;4964760;28;20454;-76
2022/02/20 07:36:00;;;;;;;33.65;7.32;;;10.00;92.80;;;;;;4947427;28;20074;-77
2022/02/20 07:38:25;;;;;;;32.17;7.10;;;10.00;92.70;;;;;;4950536;28;20034;-74
2022/02/20 07:40:51;;;;;;;33.53;7.47;;;10.00;92.60;;;;;;4942703;28;20050;-75
2022/02/20 07:43:17;;;;;;;31.45;7.03;;;10.10;92.50;;;;;;4959208;28;20062;-73
2022/02/20 07:45:43;;;;;;;35.00;7.22;;;10.10;92.30;;;;;;4974185;28;20481;-76
2022/02/20 07:48:09;;;;;;;33.80;6.45;;;10.10;92.20;;;;;;4978309;28;20061;-78
2022/02/20 07:50:40;;;;;;;29.13;6.60;;;10.10;92.00;;;;;;4962470;28;20110;-75
2022/02/20 07:53:06;;;;;;;36.38;7.28;;;10.10;91.90;;;;;;4954399;28;20034;-74
2022/02/20 07:55:33;;;;;;;34.88;7.35;;;10.10;91.90;;;;;;4951721;28;20179;-73
2022/02/20 07:58:08;;;;;;;36.05;7.97;;;10.20;91.80;;;;;;4959000;28;20047;-73
2022/02/20 08:00:33;;;;;;;;;;;10.20;91.60;;;;;;4949094;28;20047;-74
2022/02/20 08:03:02;;;;;;;32.88;7.18;;;10.30;91.40;;;;;;4962672;28;19972;-73
2022/02/20 08:05:28;;;;;;;42.58;7.95;;;10.30;91.30;;;;;;4955079;28;20062;-76
2022/02/20 08:07:54;;;;;;;38.97;7.53;;;10.40;91.00;;;;;;4964235;28;20038;-73
2022/02/20 08:10:20;;;;;;;34.35;7.07;;;10.40;90.80;;;;;;4959563;28;20094;-75
2022/02/20 08:12:47;;;;;;;42.70;8.88;;;10.50;90.50;;;;;;4962256;28;20102;-74
2022/02/20 08:15:13;;;;;;;37.00;8.45;;;10.50;90.20;;;;;;4966969;28;20039;-74
2022/02/20 08:17:43;;;;;;;39.53;7.78;;;10.50;89.80;;;;;;4950855;28;20175;-73
2022/02/20 08:20:09;;;;;;;44.10;6.93;;;10.60;89.60;;;;;;4956617;28;20043;-75
2022/02/20 08:22:35;;;;;;;35.15;7.28;;;10.60;89.50;;;;;;4956373;28;20042;-75
2022/02/20 08:25:01;;;;;;;41.15;9.50;;;10.70;89.30;;;;;;4973138;28;20023;-75
2022/02/20 08:27:27;;;;;;;40.13;8.80;;;10.60;88.80;;;;;;4963627;28;20111;-78
2022/02/20 08:29:54;;;;;;;37.28;8.02;;;10.70;88.60;;;;;;4957242;28;20049;-74
2022/02/20 08:32:20;;;;;;;38.35;8.30;;;10.70;88.40;;;;;;4943862;28;20079;-74
2022/02/20 08:34:46;;;;;;;40.10;8.45;;;10.80;88.10;;;;;;4964877;28;20122;-74
2022/02/20 08:37:12;;;;;;;41.75;8.25;;;10.80;88.00;;;;;;4979299;28;20548;-74
2022/02/20 08:39:37;;;;;;;46.78;9.10;;;10.80;87.90;;;;;;4977750;28;20045;-74
2022/02/20 08:42:04;;;;;;;34.95;8.88;;;10.80;87.60;;;;;;4965161;28;20035;-74
2022/02/20 08:44:34;;;;;;;48.55;8.80;;;10.80;87.30;;;;;;4940418;28;20253;-73
2022/02/20 08:47:01;;;;;;;36.15;7.70;;;10.80;87.00;;;;;;4938965;28;20039;-73
2022/02/20 08:49:27;;;;;;;36.70;9.13;;;10.90;87.00;;;;;;4946309;28;20146;-73
2022/02/20 08:51:53;;;;;;;35.83;8.18;;;10.90;86.90;;;;;;4944593;28;20051;-76
2022/02/20 08:54:19;;;;;;;35.60;7.68;;;10.90;86.90;;;;;;4946365;28;20042;-75
2022/02/20 08:56:45;;;;;;;35.60;7.03;;;10.90;86.90;;;;;;4957398;28;20034;-73
2022/02/20 08:59:11;;;;;;;37.35;8.13;;;11.00;86.80;;;;;;4948954;28;20034;-74
2022/02/20 09:01:36;;;;;;;40.05;8.60;;;11.00;86.50;;;;;;4960408;28;20073;-74
2022/02/20 09:04:03;;;;;;;35.95;8.18;;;11.00;86.50;;;;;;4952162;28;20035;-74
2022/02/20 09:06:32;;;;;;;47.35;8.85;;;11.10;86.30;;;;;;4954693;28;20092;-76
2022/02/20 09:08:58;;;;;;;40.05;8.45;;;11.10;86.00;;;;;;4943824;28;20034;-78
2022/02/20 09:11:25;;;;;;;43.03;9.38;;;11.10;85.90;;;;;;4951026;28;20400;-76
2022/02/20 09:13:51;;;;;;;38.42;7.75;;;11.20;85.50;;;;;;4957757;28;20097;-73
2022/02/20 09:16:17;;;;;;;52.45;11.25;;;11.20;85.40;;;;;;4950379;28;20529;-77
2022/02/20 09:18:43;;;;;;;38.58;8.43;;;11.20;85.40;;;;;;4953099;28;20040;-78
2022/02/20 09:21:08;;;;;;;41.67;8.30;;;11.20;85.30;;;;;;4951222;28;20491;-74
2022/02/20 09:23:35;;;;;;;44.90;9.10;;;11.30;85.00;;;;;;4955682;28;20452;-73
2022/02/20 09:26:01;;;;;;;47.90;8.65;;;11.30;84.50;;;;;;4953114;28;20035;-73
2022/02/20 09:28:26;;;;;;;43.78;9.75;;;11.40;84.50;;;;;;4966854;28;20039;-73
2022/02/20 09:30:52;;;;;;;45.30;8.40;;;11.30;84.30;;;;;;4962081;28;20050;-72
2022/02/20 09:33:18;;;;;;;42.50;7.93;;;11.30;84.20;;;;;;4950177;28;20035;-78
2022/02/20 09:35:43;;;;;;;43.38;8.07;;;11.40;83.60;;;;;;4954453;28;20491;-76
2022/02/20 09:38:09;;;;;;;35.38;8.20;;;11.40;83.60;;;;;;4942683;28;20105;-85
2022/02/20 09:40:35;;;;;;;46.80;8.15;;;11.40;83.40;;;;;;4954075;28;20536;-79
2022/02/20 09:43:01;;;;;;;36.90;9.02;;;11.50;83.50;;;;;;4961203;28;20035;-73
2022/02/20 09:45:27;;;;;;;36.20;7.53;;;11.40;83.10;;;;;;4963346;28;20105;-78
2022/02/20 09:47:53;;;;;;;42.80;9.75;;;11.40;82.90;;;;;;4967348;28;20039;-76
2022/02/20 09:50:19;;;;;;;41.85;8.05;;;11.40;82.70;;;;;;4961099;28;20066;-74
2022/02/20 09:52:44;;;;;;;37.50;9.02;;;11.40;82.30;;;;;;4957601;28;20043;-75
2022/02/20 09:55:11;;;;;;;41.53;8.93;;;11.40;82.40;;;;;;4961970;28;20043;-74
2022/02/20 09:57:37;;;;;;;35.88;7.72;;;11.50;82.00;;;;;;4965983;28;20046;-77
2022/02/20 10:00:07;;;;;;;33.50;8.77;;;11.60;81.60;;;;;;4971461;28;20039;-79
2022/02/20 10:02:39;;;;;;;36.05;7.80;;;11.50;81.50;;;;;;4951532;28;20062;-76
2022/02/20 10:05:08;;;;;;;38.60;7.97;;;11.50;81.80;;;;;;4955296;28;20532;-74
2022/02/20 10:07:38;;;;;;;38.13;7.82;;;11.50;81.70;;;;;;4957869;28;20406;-73
2022/02/20 10:10:17;;;;;;;37.38;9.45;;;11.50;81.80;;;;;;4955968;28;20490;-75
2022/02/20 10:12:44;;;;;;;32.33;9.00;;;11.50;82.00;;;;;;4964759;28;20125;-73
2022/02/20 10:15:40;;;;;;;42.92;8.65;;;11.50;81.50;;;;;;4971009;28;20039;-78
2022/02/20 10:18:20;;;;;;;33.90;8.35;;;11.50;81.70;;;;;;4950788;28;20042;-77
2022/02/20 10:20:47;;;;;;;41.75;8.50;;;11.50;81.60;;;;;;4958550;28;20483;-76
2022/02/20 10:23:15;;;;;;;41.92;8.32;;;11.50;82.10;;;;;;4969985;28;20287;-78
2022/02/20 10:25:44;;;;;;;35.85;8.23;;;11.40;82.40;;;;;;4945455;28;20031;-76
2022/02/20 10:28:11;;;;;;;36.55;8.23;;;11.40;82.80;;;;;;4965045;28;20475;-79
2022/02/20 10:30:37;;;;;;;43.05;8.85;;;11.40;83.30;;;;;;4975588;28;20056;-77
2022/02/20 10:33:20;;;;;;;40.22;8.50;;;11.50;83.50;;;;;;4960750;28;20508;-74
2022/02/20 10:35:48;;;;;;;36.65;7.88;;;11.40;83.40;;;;;;4969020;28;20374;-77
2022/02/20 10:38:20;;;;;;;37.58;8.32;;;11.40;83.40;;;;;;4968681;28;20570;-76
2022/02/20 10:40:56;;;;;;;38.17;7.68;;;11.40;83.20;;;;;;4964290;28;20041;-75
2022/02/20 10:43:28;;;;;;;37.40;8.98;;;11.40;83.50;;;;;;4964190;28;20803;-76
2022/02/20 10:46:10;;;;;;;37.70;7.68;;;11.30;83.00;;;;;;4958227;28;20636;-76
2022/02/20 10:48:40;;;;;;;40.40;8.55;;;11.40;83.20;;;;;;4958606;28;20078;-75
2022/02/20 10:51:07;;;;;;;41.03;9.05;;;11.40;82.90;;;;;;4961742;28;20469;-77
2022/02/20 10:53:33;;;;;;;38.70;10.05;;;11.40;82.80;;;;;;4962957;28;20042;-76
2022/02/20 10:56:02;;;;;;;36.28;8.73;;;11.40;82.70;;;;;;4959691;28;20050;-80
2022/02/20 10:58:30;;;;;;;38.83;8.07;;;11.40;82.60;;;;;;4971271;28;20039;-80
2022/02/20 11:01:01;;;;;;;35.63;7.55;;;11.40;81.90;;;;;;4967732;28;20046;-77
2022/02/20 11:03:30;;;;;;;46.03;8.82;;;11.50;81.90;;;;;;4965623;28;20085;-82
2022/02/20 11:05:57;;;;;;;37.60;8.15;;;11.50;81.80;;;;;;4963345;28;20035;-79
2022/02/20 11:08:26;;;;;;;45.88;9.90;;;11.50;82.00;;;;;;4959934;28;20062;-81
2022/02/20 11:10:52;;;;;;;32.45;8.02;;;11.50;81.30;;;;;;4974151;28;20117;-79
2022/02/20 11:13:20;;;;;;;38.03;8.57;;;11.60;81.50;;;;;;4959723;28;20483;-78
2022/02/20 11:15:48;;;;;;;48.08;8.95;;;11.60;81.70;;;;;;4978518;28;20046;-81
2022/02/20 11:18:17;;;;;;;42.30;8.88;;;11.50;82.30;;;;;;4967268;28;20109;-78
2022/02/20 11:20:52;;;;;;;36.33;8.60;;;11.50;82.40;;;;;;4963716;28;20058;-75
2022/02/20 11:23:26;;;;;;;43.65;8.15;;;11.60;82.00;;;;;;4946388;28;20030;-78
2022/02/20 11:25:55;;;;;;;33.28;7.72;;;11.60;82.40;;;;;;4964410;28;20031;-78
2022/02/20 11:28:20;;;;;;;38.28;8.15;;;11.60;82.40;;;;;;4971118;28;20097;-76
2022/02/20 11:30:47;;;;;;;41.30;9.75;;;11.60;82.60;;;;;;4963514;28;20491;-77
2022/02/20 11:33:14;;;;;;;38.80;8.38;;;11.60;82.70;;;;;;4964581;28;20031;-78
2022/02/20 11:35:46;;;;;;;36.70;8.05;;;11.60;82.90;;;;;;4963259;28;20027;-79
2022/02/20 11:38:21;;;;;;;45.55;8.98;;;11.70;83.10;;;;;;4966632;28;20433;-77
2022/02/20 11:40:59;;;;;;;34.42;8.65;;;11.70;82.60;;;;;;4965779;28;20038;-78
2022/02/20 11:43:46;;;;;;;35.22;8.23;;;11.80;82.00;;;;;;4970710;28;20039;-81
2022/02/20 11:46:15;;;;;;;39.25;8.50;;;11.80;81.70;;;;;;4967630;28;20134;-78
2022/02/20 11:49:03;;;;;;;43.22;8.52;;;11.90;81.80;;;;;;4948899;28;20031;-76
2022/02/20 11:51:30;;;;;;;42.45;8.60;;;11.90;81.80;;;;;;4964924;28;20058;-80
2022/02/20 11:54:21;;;;;;;36.75;8.85;;;12.00;81.80;;;;;;4969550;28;20039;-77
2022/02/20 11:57:15;;;;;;;38.00;9.43;;;12.00;81.40;;;;;;4975285;28;20159;-80
2022/02/20 12:00:01;;;;;;;41.53;9.63;;;12.00;81.40;;;;;;4963698;28;20824;-76
2022/02/20 12:02:28;;;;;;;36.38;8.90;;;12.00;81.50;;;;;;4969915;28;20166;-78
2022/02/20 12:04:54;;;;;;;39.00;9.30;;;12.00;81.70;;;;;;4958628;28;20032;-77
2022/02/20 12:07:29;;;;;;;45.40;10.13;;;11.90;81.90;;;;;;4981094;28;20042;-78
2022/02/20 12:10:20;;;;;;;39.85;9.40;;;12.00;82.00;;;;;;4955418;28;20062;-79
2022/02/20 12:12:51;;;;;;;39.65;8.57;;;12.00;81.80;;;;;;4957072;28;21299;-76
2022/02/20 12:15:38;;;;;;;38.80;8.73;;;11.90;82.30;;;;;;4972318;28;20027;-75
2022/02/20 12:18:10;;;;;;;39.25;9.38;;;11.90;82.60;;;;;;4963751;28;20724;-79
2022/02/20 12:20:51;;;;;;;35.08;8.90;;;11.90;83.20;;;;;;4958155;28;20572;-78
2022/02/20 12:23:33;;;;;;;40.83;9.45;;;11.70;83.40;;;;;;4969496;28;20057;-76
2022/02/20 12:26:05;;;;;;;37.60;8.57;;;11.70;83.50;;;;;;4973523;28;20045;-78
2022/02/20 12:28:38;;;;;;;42.22;9.02;;;11.70;83.50;;;;;;4967035;28;20042;-77
2022/02/20 12:31:13;;;;;;;38.03;9.10;;;11.70;83.80;;;;;;4970605;28;20046;-78
2022/02/20 12:33:47;;;;;;;42.83;9.93;;;11.60;84.30;;;;;;4969673;28;20064;-81
2022/02/20 12:36:22;;;;;;;39.72;9.25;;;11.60;84.70;;;;;;4967281;28;20038;-82
2022/02/20 12:38:52;;;;;;;34.25;8.48;;;11.60;85.10;;;;;;4960400;28;20090;-77
2022/02/20 12:41:19;;;;;;;39.75;8.63;;;11.50;85.20;;;;;;4949065;28;20070;-77
2022/02/20 12:43:53;;;;;;;34.35;7.50;;;11.50;85.70;;;;;;4949722;28;20026;-77
2022/02/20 12:46:20;;;;;;;42.53;8.80;;;11.40;85.90;;;;;;4963495;28;20058;-75